Latest Weather Observations for Parawa West

IDS60901

Issued at 5:21 pm CST Sunday 23 April 2017 (issued every 10 minutes, with the page automatically refreshed every 10 minutes)

About weather observations | Map of Adelaide area stations | Latest observations for Adelaide area | Other Formats
Station Details ID: 023875 Name: SECOND VALLEY FOREST AWS Lat: -35.57 Lon: 138.29 Height: 341.0 m
Data from the previous 72 hours. | See also: Recent months at Parawa West
Date/Time
CST
Temp
°C
App
Temp
°C
Dew
Point
°C
Rel
Hum
%
Delta-T
°C
Wind Press
QNH
hPa
Press
MSL
hPa
Rain since
9am
mm
Dir  Spd
km/h
Gust
km/h
Spd
kts
Gust
kts
23/05:00pm 16.5 16.0 15.0 91 0.9 SE 11 13 6 7 1021.4 1021.0 0.0
23/04:30pm 16.5 16.1 15.2 92 0.8 SE 11 15 6 8 1021.3 1020.9 0.0
23/04:00pm 17.4 16.7 15.4 88 1.2 ESE 13 17 7 9 1021.5 1021.1 0.0
23/03:30pm 17.4 17.3 16.1 92 0.8 SSE 11 15 6 8 1021.5 1021.1 0.0
23/03:00pm 18.5 17.4 14.2 76 2.5 SE 13 17 7 9 1021.4 1021.0 0.0
23/02:30pm 19.1 17.5 13.9 72 3.0 ESE 15 20 8 11 1021.2 1020.7 0.0
23/02:00pm 19.7 17.4 12.9 65 3.9 E 17 22 9 12 1021.3 1020.9 0.0
23/01:30pm 19.3 17.1 13.3 68 3.5 ESE 17 20 9 11 1021.5 1021.1 0.0
23/01:00pm 19.0 17.5 13.2 69 3.3 ESE 13 20 7 11 1021.8 1021.4 0.0
23/12:30pm 18.7 17.1 12.7 68 3.4 E 13 19 7 10 1022.4 1022.0 0.0
23/12:00pm 18.7 16.0 11.8 64 3.8 E 17 24 9 13 1022.8 1022.4 0.0
23/11:30am 18.5 16.1 12.7 69 3.3 E 17 24 9 13 1023.0 1022.6 0.0
23/11:00am 18.4 16.9 13.1 71 3.0 E 13 17 7 9 1023.5 1023.0 0.0
23/10:30am 17.6 15.5 12.3 71 3.0 ESE 15 22 8 12 1023.7 1023.2 0.0
23/10:00am 17.6 15.1 12.3 71 3.0 E 17 20 9 11 1023.7 1023.2 0.0
23/09:30am 18.0 15.7 12.9 72 2.9 ENE 17 20 9 11 1023.8 1023.3 0.0
23/09:00am 16.5 14.2 13.0 80 2.0 E 17 22 9 12 1024.0 1023.6 0.2
23/08:30am 15.7 13.9 13.2 85 1.4 E 15 19 8 10 1023.9 1023.5 0.2
23/08:00am 15.2 13.8 13.4 89 1.0 E 13 17 7 9 1023.7 1023.2 0.2
23/07:30am 14.6 13.3 13.8 95 0.5 E 13 17 7 9 1023.3 1022.9 0.2
23/07:00am 13.8 13.2 13.5 98 0.2 ESE 9 11 5 6 1023.2 1022.8 0.2
23/06:30am 14.1 13.2 13.6 97 0.3 ESE 11 17 6 9 1023.1 1022.7 0.2
23/06:00am 14.0 12.4 13.8 99 0.1 E 15 19 8 10 1022.8 1022.4 0.2
23/05:30am 14.0 12.0 13.8 99 0.1 E 17 20 9 11 1022.5 1022.1 0.2
23/05:00am 14.0 11.5 14.0 100 0.0 E 20 26 11 14 1022.3 1021.9 0.2
23/04:30am 14.1 11.8 14.1 100 0.0 E 19 22 10 12 1022.1 1021.7 0.2
23/04:00am 13.7 13.2 13.7 100 0.0 ESE 9 13 5 7 1022.2 1021.8 0.0
23/03:30am 13.6 12.7 13.6 100 0.0 ESE 11 15 6 8 1022.0 1021.6 0.0
23/03:00am 14.0 13.2 14.0 100 0.0 ESE 11 15 6 8 1022.2 1021.8 0.0
23/02:30am 14.1 13.3 13.9 99 0.1 ESE 11 17 6 9 1022.4 1022.0 0.0
23/02:00am 14.5 13.4 14.3 99 0.1 ESE 13 19 7 10 1023.0 1022.6 0.0
23/01:30am 14.6 13.5 14.4 99 0.1 ESE 13 19 7 10 1023.1 1022.7 0.0
23/01:00am 14.6 13.2 14.4 99 0.1 SE 15 19 8 10 1023.3 1022.9 0.0
23/12:30am 14.5 13.0 14.3 99 0.1 SE 15 20 8 11 1023.6 1023.1 0.0
23/12:00am 14.6 13.2 14.6 100 0.0 SE 15 19 8 10 1023.8 1023.3 0.0
 
Date/Time
CST
Temp
°C
App
Temp
°C
Dew
Point
°C
Rel
Hum
%
Delta-T
°C
Wind Press
QNH
hPa
Press
MSL
hPa
Rain since
9am
mm
Dir  Spd
km/h
Gust
km/h
Spd
kts
Gust
kts
22/11:30pm 14.7 13.4 14.7 100 0.0 SE 15 19 8 10 1023.9 1023.5 0.0
22/11:00pm 14.7 13.4 14.7 100 0.0 SE 15 19 8 10 1024.0 1023.6 0.0
22/10:30pm 14.6 13.6 14.6 100 0.0 SE 13 17 7 9 1024.1 1023.7 0.0
22/10:00pm 14.7 13.0 14.7 100 0.0 SE 17 20 9 11 1024.0 1023.6 0.0
22/09:30pm 14.8 13.5 14.8 100 0.0 SE 15 19 8 10 1024.2 1023.8 0.0
22/09:00pm 14.5 13.1 14.5 100 0.0 SE 15 19 8 10 1024.0 1023.6 0.0
22/08:30pm 14.4 13.0 14.4 100 0.0 SE 15 22 8 12 1023.8 1023.3 0.0
22/08:00pm 14.7 13.4 14.7 100 0.0 SE 15 20 8 11 1023.6 1023.1 0.0
22/07:30pm 14.3 12.8 14.1 99 0.1 SE 15 17 8 9 1023.5 1023.0 0.0
22/07:00pm 14.3 12.7 14.0 98 0.2 SE 15 20 8 11 1023.2 1022.8 0.0
22/06:30pm 14.2 12.5 13.7 97 0.3 SE 15 20 8 11 1022.9 1022.5 0.0
22/06:00pm 14.4 12.8 13.8 96 0.3 SE 15 20 8 11 1022.8 1022.4 0.0
22/05:30pm 14.8 12.8 13.8 94 0.6 SE 17 22 9 12 1022.6 1022.2 0.0
22/05:00pm 15.4 13.4 13.9 91 0.9 SE 17 20 9 11 1022.6 1022.2 0.0
22/04:30pm 15.8 13.4 13.8 88 1.1 SE 19 22 10 12 1022.5 1022.1 0.0
22/04:00pm 16.1 13.7 13.9 87 1.3 SE 19 22 10 12 1022.5 1022.1 0.0
22/03:30pm 16.6 14.2 13.9 84 1.5 SE 19 22 10 12 1022.3 1021.9 0.0
22/03:00pm 17.3 15.3 14.0 81 1.9 SSE 17 22 9 12 1022.3 1021.9 0.0
22/02:30pm 17.6 15.5 13.5 77 2.3 SE 17 22 9 12 1022.3 1021.9 0.0
22/02:00pm 17.6 15.4 13.3 76 2.5 ESE 17 24 9 13 1022.4 1022.0 0.0
22/01:30pm 18.0 15.7 14.1 78 2.3 SE 19 24 10 13 1022.6 1022.2 0.0
22/01:00pm 18.3 16.1 13.2 72 2.9 ESE 17 22 9 12 1022.9 1022.5 0.0
22/12:30pm 18.3 15.9 12.5 69 3.3 SE 17 22 9 12 1023.1 1022.7 0.0
22/12:00pm 18.1 16.4 13.6 75 2.6 SE 15 19 8 10 1023.6 1023.1 0.0
22/11:30am 17.9 16.6 13.8 77 2.4 ESE 13 19 7 10 1023.9 1023.5 0.0
22/11:00am 17.2 16.1 14.3 83 1.7 SE 13 17 7 9 1024.1 1023.7 0.0
22/10:30am 16.9 16.2 14.4 85 1.4 SE 11 15 6 8 1024.2 1023.8 0.0
22/10:00am 16.9 16.3 14.5 86 1.4 SE 11 17 6 9 1024.3 1023.9 0.0
22/09:30am 16.1 16.5 15.3 95 0.5 SE 7 11 4 6 1024.4 1024.0 0.0
22/09:00am 15.1 15.4 15.1 100 0.0 E 7 9 4 5 1024.2 1023.8 -
22/08:30am 14.7 14.9 14.7 100 0.0 SE 7 9 4 5 1024.1 1023.7 -
22/08:00am 14.2 14.8 14.2 100 0.0 SSE 4 4 2 2 1023.8 1023.3 -
22/07:30am 13.5 13.8 13.5 100 0.0 SSE 4 6 2 3 1023.5 1023.0 -
22/07:00am 12.9 13.1 12.9 100 0.0 SSE 4 4 2 2 1023.1 1022.7 -
22/06:30am 12.5 12.1 12.5 100 0.0 SSE 6 6 3 3 1022.9 1022.5 -
22/06:00am 13.0 13.2 13.0 100 0.0 S 4 6 2 3 1022.7 1022.3 -
22/05:30am 13.0 13.2 13.0 100 0.0 S 4 6 2 3 1022.6 1022.2 -
22/05:00am 12.8 12.9 12.8 100 0.0 S 4 6 2 3 1022.4 1022.0 -
22/04:30am 13.4 13.7 13.4 100 0.0 S 4 6 2 3 1022.3 1021.9 -
22/04:00am 13.3 13.6 13.3 100 0.0 SSE 4 6 2 3 1022.4 1022.0 -
22/03:30am 13.3 14.0 13.3 100 0.0 SSE 2 2 1 1 1022.2 1021.8 -
22/03:00am 13.3 13.6 13.3 100 0.0 SSE 4 4 2 2 1022.2 1021.8 0.0
22/02:30am 13.2 13.8 13.2 100 0.0 SSE 2 4 1 2 1022.4 1022.0 -
22/02:00am 12.9 13.1 12.9 100 0.0 SSE 4 4 2 2 1022.4 1022.0 -
22/01:30am 12.6 12.7 12.6 100 0.0 SSE 4 4 2 2 1022.6 1022.2 -
22/01:00am 12.2 11.7 12.2 100 0.0 SSE 6 6 3 3 1022.6 1022.2 -
22/12:30am 12.7 12.8 12.7 100 0.0 SSE 4 4 2 2 1022.7 1022.3 -
22/12:00am 12.7 12.4 12.7 100 0.0 SSE 6 6 3 3 1022.8 1022.4 -
 
Date/Time
CST
Temp
°C
App
Temp
°C
Dew
Point
°C
Rel
Hum
%
Delta-T
°C
Wind Press
QNH
hPa
Press
MSL
hPa
Rain since
9am
mm
Dir  Spd
km/h
Gust
km/h
Spd
kts
Gust
kts
21/11:30pm 12.6 12.7 12.6 100 0.0 S 4 6 2 3 1022.9 1022.5 -
21/11:00pm 12.8 12.9 12.8 100 0.0 S 4 6 2 3 1023.0 1022.6 -
21/10:30pm 13.0 12.6 13.0 100 0.0 S 7 7 4 4 1023.0 1022.6 -
21/10:00pm 13.4 13.3 13.4 100 0.0 SSE 6 6 3 3 1023.1 1022.7 -
21/09:30pm 12.9 13.1 12.9 100 0.0 SSE 4 6 2 3 1023.0 1022.6 -
21/09:00pm 12.8 12.3 12.8 100 0.0 S 7 7 4 4 1022.9 1022.5 0.0
21/08:30pm 13.6 13.5 13.4 99 0.1 S 6 6 3 3 1022.7 1022.3 -
21/08:00pm 13.5 13.2 13.3 99 0.1 SSE 7 7 4 4 1022.6 1022.2 -
21/07:30pm 13.5 13.4 13.3 99 0.1 S 6 9 3 5 1022.4 1022.0 -
21/07:00pm 13.8 13.6 13.5 98 0.2 S 7 9 4 5 1022.2 1021.8 -
21/06:30pm 14.0 13.8 13.7 98 0.2 S 7 9 4 5 1021.9 1021.5 -
21/06:00pm 14.4 13.6 13.9 97 0.3 S 11 15 6 8 1021.7 1021.3 -
21/05:30pm 14.8 13.7 14.2 96 0.3 S 13 17 7 9 1021.4 1021.0 -
21/05:00pm 15.2 14.4 14.1 93 0.6 SSE 11 15 6 8 1021.2 1020.7 -
21/04:30pm 15.3 14.1 14.0 92 0.7 SSE 13 17 7 9 1021.2 1020.7 -
21/04:00pm 16.1 14.7 14.5 90 0.9 S 15 17 8 9 1021.1 1020.6 -
21/03:30pm 16.5 14.9 14.0 85 1.4 S 15 20 8 11 1020.9 1020.4 -
21/03:00pm 17.9 18.1 13.0 73 2.8 SW 4 13 2 7 1020.8 1020.3 -
21/02:30pm 18.0 17.8 12.9 72 2.9 SW 6 11 3 6 1020.7 1020.2 -
21/02:00pm 17.2 16.5 13.3 78 2.2 W 9 13 5 7 1020.9 1020.4 0.0
21/01:30pm 17.1 16.3 12.8 76 2.4 W 9 15 5 8 1021.0 1020.5 0.0
21/01:00pm 17.3 15.8 11.8 70 3.1 WSW 11 20 6 11 1021.2 1020.7 0.0
21/12:30pm 16.8 16.3 13.7 82 1.8 WSW 9 13 5 7 1021.6 1021.2 0.0
21/12:00pm 17.2 16.7 13.7 80 2.0 W 9 13 5 7 1021.9 1021.5 0.0
21/11:30am 16.8 16.0 13.9 83 1.7 SW 11 15 6 8 1022.1 1021.7 0.0
21/11:00am 16.4 15.3 14.4 88 1.2 WSW 13 15 7 8 1022.2 1021.8 0.0
21/10:30am 16.4 17.1 15.6 95 0.5 SW 6 9 3 5 1022.3 1021.9 0.0
21/10:00am 16.1 16.6 15.6 97 0.3 SW 7 9 4 5 1022.4 1022.0 0.0
21/09:30am 15.9 16.4 15.6 98 0.2 SW 7 11 4 6 1022.3 1021.9 0.0
21/09:00am 15.9 16.5 15.9 100 0.0 SSW 7 13 4 7 1022.1 1021.7 16.2
21/08:30am 15.3 15.7 15.3 100 0.0 SSW 7 9 4 5 1022.0 1021.6 16.2
21/08:00am 15.2 16.1 15.2 100 0.0 SSW 4 6 2 3 1021.8 1021.4 16.2
21/07:30am 15.1 15.6 15.1 100 0.0 S 6 6 3 3 1021.6 1021.2 16.2
21/07:00am 14.9 15.2 14.9 100 0.0 S 7 9 4 5 1021.2 1020.7 16.2
21/06:30am 14.9 15.4 14.9 100 0.0 S 6 7 3 4 1020.7 1020.2 16.2
21/06:00am 14.9 15.4 14.9 100 0.0 S 6 9 3 5 1020.6 1020.1 16.2
21/05:30am 14.7 14.9 14.7 100 0.0 SSW 7 13 4 7 1020.2 1019.8 16.2
21/05:00am 14.7 15.1 14.7 100 0.0 SW 6 9 3 5 1019.9 1019.5 16.2
21/04:30am 15.0 15.3 15.0 100 0.0 SSW 7 7 4 4 1019.7 1019.3 16.2
21/04:00am 15.2 16.1 15.2 100 0.0 WSW 4 6 2 3 1019.5 1019.1 16.2
21/03:30am 15.2 16.9 15.2 100 0.0 CALM 0 0 0 0 1019.5 1019.1 16.2
21/03:00am 15.1 15.6 15.1 100 0.0 SW 6 9 3 5 1019.6 1019.2 16.0
21/02:30am 15.1 15.6 15.1 100 0.0 SSW 6 9 3 5 1019.6 1019.2 16.0
21/02:00am 15.4 15.5 15.4 100 0.0 SSW 9 11 5 6 1019.8 1019.4 16.0
21/01:30am 15.5 16.0 15.5 100 0.0 SSW 7 9 4 5 1019.9 1019.5 16.0
21/01:00am 15.5 16.0 15.5 100 0.0 S 7 11 4 6 1019.8 1019.4 16.0
21/12:30am 15.5 15.6 15.5 100 0.0 S 9 13 5 7 1019.9 1019.5 16.0
21/12:00am 15.6 16.1 15.6 100 0.0 SSW 7 11 4 6 1019.8 1019.4 16.0
 
Date/Time
CST
Temp
°C
App
Temp
°C
Dew
Point
°C
Rel
Hum
%
Delta-T
°C
Wind Press
QNH
hPa
Press
MSL
hPa
Rain since
9am
mm
Dir  Spd
km/h
Gust
km/h
Spd
kts
Gust
kts
20/11:30pm 15.7 16.3 15.7 100 0.0 SSW 7 9 4 5 1020.0 1019.6 15.8
20/11:00pm 15.8 16.4 15.8 100 0.0 SSW 7 11 4 6 1020.0 1019.6 15.8
20/10:30pm 15.9 15.8 15.9 100 0.0 SSW 11 13 6 7 1020.2 1019.8 15.8
20/10:00pm 16.1 16.4 16.1 100 0.0 S 9 11 5 6 1020.4 1019.9 15.8
20/09:30pm 16.2 17.1 16.2 100 0.0 S 6 9 3 5 1020.4 1019.9 15.8
20/09:00pm 16.2 16.9 16.2 100 0.0 S 7 9 4 5 1020.4 1019.9 15.8
20/08:30pm 16.3 16.3 16.3 100 0.0 S 11 13 6 7 1020.5 1020.0 15.8
20/08:00pm 16.5 17.6 16.5 100 0.0 SSW 6 9 3 5 1020.2 1019.8 15.8
20/07:30pm 16.7 16.9 16.7 100 0.0 SSW 11 15 6 8 1020.1 1019.7 15.8
20/07:00pm 17.0 17.7 17.0 100 0.0 W 9 13 5 7 1019.8 1019.4 15.8
20/06:30pm 17.1 18.2 17.1 100 0.0 NW 7 9 4 5 1019.4 1019.0 15.8
20/06:00pm 17.3 18.5 17.3 100 0.0 NW 7 9 4 5 1019.2 1018.8 15.8
20/05:30pm 17.6 19.5 17.6 100 0.0 W 4 6 2 3 1019.1 1018.7 15.8

Latest Capital City Observations: Canberra | Sydney | Melbourne | Brisbane | Adelaide | Perth | Hobart | Darwin

Other Formats:

Comma delimited format used in spreadsheet applications
http://www.bom.gov.au/fwo/IDS60901/IDS60901.94811.axf

JavaScript Object Notation format (JSON) in row-major order
http://www.bom.gov.au/fwo/IDS60901/IDS60901.94811.json